Time,TemperatureF,DewpointF,PressureIn,WindDirection,WindDirectionDegrees,WindSpeedMPH,WindSpeedGustMPH,Humidity,HourlyPrecipIn,Conditions,Clouds,dailyrainin,SoftwareType,DateUTC
2017-02-21 00:03:00,39.5,38.2,30.08,South,170,1.0,4.0,95,0.00,,FEW150,0.00,VWS V15.00,2017-02-21 08:03:00,
2017-02-21 00:08:00,39.6,38.0,30.08,SW,217,0.0,4.0,94,0.00,,FEW150,0.00,VWS V15.00,2017-02-21 08:08:00,
2017-02-21 00:13:00,39.4,37.8,30.08,West,271,0.0,4.0,94,0.00,,FEW150,0.00,VWS V15.00,2017-02-21 08:13:00,
2017-02-21 00:18:00,39.3,37.7,30.08,SSW,209,0.0,4.0,94,0.00,,FEW150,0.00,VWS V15.00,2017-02-21 08:18:00,
2017-02-21 00:23:00,39.2,37.6,30.08,WNW,297,0.0,4.0,94,0.00,,FEW150,0.00,VWS V15.00,2017-02-21 08:23:00,
2017-02-21 00:28:00,39.1,37.5,30.08,SW,221,0.0,4.0,94,0.00,,FEW150,0.00,VWS V15.00,2017-02-21 08:28:00,
2017-02-21 00:33:00,39.1,37.5,30.08,SSW,205,0.0,4.0,94,0.00,,FEW150,0.00,VWS V15.00,2017-02-21 08:33:00,
2017-02-21 00:38:00,39.1,37.5,30.09,SSW,212,0.0,4.0,94,0.00,,FEW150,0.00,VWS V15.00,2017-02-21 08:38:00,
2017-02-21 00:43:00,39.2,37.6,30.08,SSW,202,2.0,6.0,94,0.00,,FEW150,0.00,VWS V15.00,2017-02-21 08:43:00,
2017-02-21 00:48:00,39.5,37.7,30.08,SW,222,1.0,6.0,93,0.00,,FEW150,0.00,VWS V15.00,2017-02-21 08:48:00,
2017-02-21 00:53:00,39.8,37.4,30.08,SW,216,2.0,6.0,91,0.00,,FEW150,0.00,VWS V15.00,2017-02-21 08:53:00,
2017-02-21 00:57:00,40.1,37.1,30.08,SSW,196,5.0,9.0,89,0.00,,FEW150,0.00,VWS V15.00,2017-02-21 08:57:00,
2017-02-21 01:02:00,40.6,37.0,30.08,WSW,252,2.0,10.0,87,0.00,,FEW150,0.00,VWS V15.00,2017-02-21 09:02:00,
2017-02-21 01:07:00,41.1,36.0,30.08,WSW,239,5.0,17.0,82,0.00,,FEW150,0.00,VWS V15.00,2017-02-21 09:07:00,
2017-02-21 02:44:00,41.0,33.0,30.10,SW,224,6.0,11.0,73,0.00,,FEW150,0.00,VWS V15.00,2017-02-21 10:44:00,
2017-02-21 02:49:00,41.3,33.3,30.10,SSW,198,7.0,16.0,73,0.00,,FEW150,0.00,VWS V15.00,2017-02-21 10:49:00,
2017-02-21 02:54:00,41.2,33.9,30.10,WNW,287,4.0,16.0,75,0.00,,FEW150,0.00,VWS V15.00,2017-02-21 10:54:00,
2017-02-21 02:59:00,40.9,34.3,30.10,South,176,6.0,16.0,77,0.00,,FEW150,0.00,VWS V15.00,2017-02-21 10:59:00,
2017-02-21 03:04:00,40.7,34.4,30.11,West,266,6.0,16.0,78,0.00,,FEW150,0.00,VWS V15.00,2017-02-21 11:04:00,
2017-02-21 03:09:00,40.5,34.8,30.11,SSW,205,4.0,16.0,80,0.00,,FEW150,0.00,VWS V15.00,2017-02-21 11:09:00,
2017-02-21 03:14:00,40.4,34.7,30.11,SSW,195,14.0,16.0,80,0.00,,FEW150,0.00,VWS V15.00,2017-02-21 11:14:00,
2017-02-21 03:19:00,40.3,34.9,30.11,SSW,198,5.0,16.0,81,0.00,,FEW150,0.00,VWS V15.00,2017-02-21 11:19:00,
2017-02-21 03:24:00,40.1,35.1,30.11,SW,235,3.0,16.0,82,0.00,,FEW150,0.00,VWS V15.00,2017-02-21 11:24:00,
2017-02-21 03:29:00,39.3,34.3,30.11,West,278,1.0,16.0,82,0.00,,FEW150,0.00,VWS V15.00,2017-02-21 11:29:00,
2017-02-21 03:34:00,39.3,34.3,30.12,West,278,1.0,16.0,82,0.00,,FEW150,0.00,VWS V15.00,2017-02-21 11:34:00,
2017-02-21 03:39:00,39.3,34.3,30.13,West,278,1.0,16.0,82,0.00,,FEW150,0.00,VWS V15.00,2017-02-21 11:39:00,
2017-02-21 03:44:00,39.3,34.3,30.13,West,278,1.0,16.0,82,0.00,,FEW150,0.00,VWS V15.00,2017-02-21 11:44:00,
2017-02-21 03:49:00,39.3,34.3,30.13,West,278,1.0,16.0,82,0.00,,FEW150,0.00,VWS V15.00,2017-02-21 11:49:00,
2017-02-21 03:54:00,39.3,34.3,30.13,West,278,1.0,16.0,82,0.00,,FEW150,0.00,VWS V15.00,2017-02-21 11:54:00,
2017-02-21 03:59:00,39.3,34.3,30.13,West,278,1.0,16.0,82,0.00,,FEW150,0.00,VWS V15.00,2017-02-21 11:59:00,
2017-02-21 04:04:00,39.3,34.3,30.13,West,278,1.0,1.0,82,0.00,,FEW150,0.00,VWS V15.00,2017-02-21 12:04:00,
2017-02-21 04:09:00,39.3,34.3,30.13,West,278,1.0,1.0,82,0.00,,FEW150,0.00,VWS V15.00,2017-02-21 12:09:00,
2017-02-21 04:14:00,39.3,34.3,30.14,West,278,1.0,1.0,82,0.00,,FEW150,0.00,VWS V15.00,2017-02-21 12:14:00,
2017-02-21 04:19:00,39.3,34.3,30.14,West,278,1.0,1.0,82,0.00,,FEW150,0.00,VWS V15.00,2017-02-21 12:19:00,
2017-02-21 04:24:00,39.3,34.3,30.14,West,278,1.0,1.0,82,0.00,,FEW150,0.00,VWS V15.00,2017-02-21 12:24:00,
2017-02-21 04:29:00,39.3,34.3,30.14,West,278,1.0,1.0,82,0.00,,FEW150,0.00,VWS V15.00,2017-02-21 12:29:00,
2017-02-21 04:34:00,39.3,34.3,30.14,West,278,1.0,1.0,82,0.00,,FEW150,0.00,VWS V15.00,2017-02-21 12:34:00,
2017-02-21 04:39:00,39.3,34.3,30.14,West,278,1.0,1.0,82,0.00,,FEW150,0.00,VWS V15.00,2017-02-21 12:39:00,
2017-02-21 04:44:00,39.3,34.3,30.14,West,278,1.0,1.0,82,0.00,,FEW150,0.00,VWS V15.00,2017-02-21 12:44:00,
2017-02-21 04:48:00,39.3,34.3,30.14,West,278,1.0,1.0,82,0.00,,FEW150,0.00,VWS V15.00,2017-02-21 12:48:00,
2017-02-21 04:53:00,39.3,34.3,30.14,West,278,1.0,1.0,82,0.00,,FEW150,0.00,VWS V15.00,2017-02-21 12:53:00,
2017-02-21 04:58:00,39.3,34.3,30.14,West,278,1.0,1.0,82,0.00,,FEW150,0.00,VWS V15.00,2017-02-21 12:58:00,
2017-02-21 05:03:00,39.3,34.3,30.15,West,278,1.0,1.0,82,0.00,,FEW150,0.00,VWS V15.00,2017-02-21 13:03:00,
2017-02-21 05:08:00,39.3,34.3,30.14,West,278,1.0,1.0,82,0.00,,FEW150,0.00,VWS V15.00,2017-02-21 13:08:00,
2017-02-21 05:13:00,39.3,34.3,30.14,West,278,1.0,1.0,82,0.00,,FEW150,0.00,VWS V15.00,2017-02-21 13:13:00,
2017-02-21 05:18:00,39.3,34.3,30.14,West,278,1.0,1.0,82,0.00,,FEW150,0.00,VWS V15.00,2017-02-21 13:18:00,
2017-02-21 05:23:00,39.3,34.3,30.15,West,278,1.0,1.0,82,0.00,,FEW150,0.00,VWS V15.00,2017-02-21 13:23:00,
2017-02-21 05:28:00,39.3,34.3,30.15,West,278,1.0,1.0,82,0.00,,FEW150,0.00,VWS V15.00,2017-02-21 13:28:00,
2017-02-21 05:33:00,39.3,34.3,30.15,West,278,1.0,1.0,82,0.00,,FEW150,0.00,VWS V15.00,2017-02-21 13:33:00,
2017-02-21 05:38:00,39.3,34.3,30.15,West,278,1.0,1.0,82,0.00,,FEW150,0.00,VWS V15.00,2017-02-21 13:38:00,
2017-02-21 05:43:00,39.3,34.3,30.15,West,278,1.0,1.0,82,0.00,,FEW150,0.00,VWS V15.00,2017-02-21 13:43:00,
2017-02-21 05:48:00,39.3,34.3,30.16,West,278,1.0,1.0,82,0.00,,FEW150,0.00,VWS V15.00,2017-02-21 13:48:00,